Time;durP1;ratioP1;P1;durP2;ratioP2;P2;SDS_P1;SDS_P2;PMS_P1;PMS_P2;Temp;Humidity;BMP_temperature;BMP_pressure;BME280_temperature;BME280_humidity;BME280_pressure;Samples;Min_cycle;Max_cycle;Signal;HPM_P1;HPM_P2
2022/01/29 00:01:24;;;;;;;15.77;5.03;;;;;;;2.11;100.00;100218.00;5051256;28;20526;-60
2022/01/29 00:03:49;;;;;;;11.73;5.30;;;;;;;2.08;100.00;100219.06;5051212;28;20344;-60
2022/01/29 00:06:16;;;;;;;12.63;4.90;;;;;;;2.15;100.00;100219.47;5051048;28;20064;-59
2022/01/29 00:08:43;;;;;;;12.97;5.20;;;;;;;2.21;100.00;100210.22;5051209;28;20372;-60
2022/01/29 00:11:12;;;;;;;11.13;5.23;;;;;;;2.24;100.00;100212.66;5051091;28;20264;-59
2022/01/29 00:13:38;;;;;;;17.20;7.00;;;;;;;2.20;100.00;100201.47;5050907;28;20377;-59
2022/01/29 00:16:04;;;;;;;12.37;5.37;;;;;;;2.19;100.00;100203.28;5051074;28;20341;-60
2022/01/29 00:18:29;;;;;;;16.90;6.03;;;;;;;2.28;100.00;100193.00;5051197;28;20036;-60
2022/01/29 00:20:55;;;;;;;16.67;5.53;;;;;;;2.18;100.00;100188.44;5051154;28;20506;-59
2022/01/29 00:23:21;;;;;;;13.93;6.20;;;;;;;2.10;100.00;100179.41;5050957;28;20485;-59
2022/01/29 00:25:46;;;;;;;14.27;5.90;;;;;;;2.25;100.00;100169.50;5051037;28;20115;-59
2022/01/29 00:28:14;;;;;;;16.00;5.87;;;;;;;2.27;100.00;100172.84;5051167;28;20128;-60
2022/01/29 00:30:42;;;;;;;15.63;5.93;;;;;;;2.12;100.00;100178.34;5050923;28;20047;-59
2022/01/29 00:33:12;;;;;;;16.40;5.70;;;;;;;2.09;100.00;100169.81;5050920;28;20282;-60
2022/01/29 00:35:38;;;;;;;11.90;5.50;;;;;;;2.12;100.00;100173.06;5051076;28;20647;-60
2022/01/29 00:38:04;;;;;;;13.20;5.47;;;;;;;2.13;100.00;100173.91;5051050;28;20281;-60
2022/01/29 00:40:36;;;;;;;14.27;5.80;;;;;;;2.24;100.00;100186.28;5051029;28;20257;-59
2022/01/29 00:43:03;;;;;;;13.73;5.47;;;;;;;2.22;100.00;100167.09;5049893;28;20053;-60
2022/01/29 00:45:29;;;;;;;14.13;5.30;;;;;;;2.24;100.00;100157.25;5051172;28;20758;-60
2022/01/29 00:47:55;;;;;;;14.30;5.57;;;;;;;2.26;100.00;100164.09;5050971;28;20331;-60
2022/01/29 00:50:20;;;;;;;15.13;5.60;;;;;;;2.18;100.00;100169.97;5050984;28;20053;-60
2022/01/29 00:52:47;;;;;;;13.47;6.10;;;;;;;2.24;100.00;100149.34;5050364;28;20029;-60
2022/01/29 00:55:13;;;;;;;14.93;6.23;;;;;;;2.35;100.00;100155.47;5050583;28;20025;-59
2022/01/29 00:57:40;;;;;;;16.63;6.37;;;;;;;2.33;100.00;100153.91;5050836;28;20773;-59
2022/01/29 01:00:08;;;;;;;15.13;5.93;;;;;;;2.28;100.00;100148.16;5051776;28;20261;-60
2022/01/29 01:02:34;;;;;;;14.33;6.50;;;;;;;2.31;100.00;100154.03;5054842;28;20809;-60
2022/01/29 01:05:01;;;;;;;13.70;6.47;;;;;;;2.24;100.00;100144.06;5054423;28;20288;-59
2022/01/29 01:07:27;;;;;;;18.63;7.17;;;;;;;2.24;100.00;100141.44;5054357;28;20528;-59
2022/01/29 01:09:52;;;;;;;13.17;6.20;;;;;;;2.25;100.00;100140.47;5054332;28;20281;-59
2022/01/29 01:12:18;;;;;;;13.53;6.70;;;;;;;2.21;100.00;100131.97;5054298;28;20028;-60
2022/01/29 01:14:43;;;;;;;14.83;6.60;;;;;;;2.21;100.00;100125.84;5053973;28;20037;-60
2022/01/29 01:17:09;;;;;;;13.50;6.20;;;;;;;2.08;100.00;100125.94;5054193;28;20058;-60
2022/01/29 01:19:34;;;;;;;20.50;7.00;;;;;;;2.16;100.00;100127.06;5054218;28;20090;-59
2022/01/29 01:22:00;;;;;;;17.60;6.80;;;;;;;2.12;100.00;100116.88;5054182;28;20028;-60
2022/01/29 01:24:25;;;;;;;16.87;7.00;;;;;;;2.18;100.00;100119.03;5054048;28;20021;-60
2022/01/29 01:26:51;;;;;;;15.20;8.07;;;;;;;2.22;100.00;100116.97;5053984;28;20482;-59
2022/01/29 01:29:17;;;;;;;16.97;7.53;;;;;;;2.14;100.00;100115.78;5054144;28;20025;-60
2022/01/29 01:31:45;;;;;;;14.53;7.03;;;;;;;2.22;100.00;100099.34;5054029;28;20027;-60
2022/01/29 01:34:15;;;;;;;14.93;6.73;;;;;;;2.22;100.00;100091.44;5053819;28;20021;-60
2022/01/29 01:36:49;;;;;;;16.27;6.90;;;;;;;2.14;100.00;100086.78;5053788;28;20273;-60
2022/01/29 01:39:19;;;;;;;15.70;6.53;;;;;;;2.17;100.00;100083.91;5053792;28;20604;-59
2022/01/29 01:41:54;;;;;;;15.23;6.90;;;;;;;2.24;100.00;100084.25;5053789;28;20301;-59
2022/01/29 01:44:20;;;;;;;17.67;7.60;;;;;;;2.18;100.00;100088.25;5053680;28;20268;-59
2022/01/29 01:46:46;;;;;;;15.47;6.97;;;;;;;2.16;100.00;100076.97;5053940;28;20249;-60
2022/01/29 01:49:12;;;;;;;16.17;7.00;;;;;;;2.15;100.00;100075.28;5052546;28;20071;-60
2022/01/29 01:51:38;;;;;;;14.03;7.07;;;;;;;2.14;100.00;100065.69;5053823;28;20270;-59
2022/01/29 01:54:04;;;;;;;18.37;7.07;;;;;;;2.16;100.00;100066.41;5053647;28;20116;-60
2022/01/29 01:56:30;;;;;;;18.00;6.87;;;;;;;2.15;100.00;100063.91;5053554;28;20029;-59
2022/01/29 01:58:56;;;;;;;15.57;7.40;;;;;;;2.03;100.00;100055.16;5052398;28;20262;-59
2022/01/29 02:01:22;;;;;;;16.77;8.07;;;;;;;2.07;100.00;100050.50;5053494;28;20052;-59
2022/01/29 02:03:48;;;;;;;17.77;7.70;;;;;;;2.08;100.00;100041.59;5053839;28;20296;-60
2022/01/29 02:06:14;;;;;;;20.67;9.20;;;;;;;2.08;100.00;100044.22;5053370;28;20047;-59
2022/01/29 02:08:39;;;;;;;19.33;8.10;;;;;;;2.07;100.00;100034.66;5052232;28;20036;-59
2022/01/29 02:11:06;;;;;;;20.83;9.83;;;;;;;2.13;100.00;100037.66;5053621;28;20024;-60
2022/01/29 02:13:32;;;;;;;21.10;8.60;;;;;;;2.18;100.00;100037.31;5051743;28;20040;-59
2022/01/29 02:15:58;;;;;;;15.47;8.40;;;;;;;2.09;100.00;100027.44;5053254;28;20646;-60
2022/01/29 02:18:25;;;;;;;17.57;7.87;;;;;;;2.17;100.00;100028.53;5053050;28;20270;-60
2022/01/29 02:20:51;;;;;;;21.23;8.57;;;;;;;2.14;100.00;100036.69;5053049;28;20029;-59
2022/01/29 02:23:17;;;;;;;21.47;9.17;;;;;;;2.07;100.00;100029.41;5052968;28;20743;-60
2022/01/29 02:25:45;;;;;;;17.90;8.50;;;;;;;2.13;100.00;100021.00;5052932;28;20262;-60
2022/01/29 02:28:12;;;;;;;16.97;8.90;;;;;;;2.13;100.00;100019.19;5052853;28;20759;-60
2022/01/29 02:30:43;;;;;;;16.50;8.17;;;;;;;2.19;100.00;100010.78;5052875;28;20306;-60
2022/01/29 02:33:12;;;;;;;17.57;8.70;;;;;;;2.15;100.00;100005.91;5052824;28;20388;-59
2022/01/29 02:35:40;;;;;;;18.67;8.87;;;;;;;2.16;100.00;100010.22;5052780;28;20285;-59
2022/01/29 02:38:08;;;;;;;21.90;9.60;;;;;;;2.05;100.00;100016.34;5052959;28;20258;-60
2022/01/29 02:40:38;;;;;;;21.27;10.00;;;;;;;2.15;100.00;99998.81;5052553;28;20261;-60
2022/01/29 02:43:14;;;;;;;20.80;9.33;;;;;;;2.04;100.00;99996.19;5052647;28;20272;-60
2022/01/29 02:45:42;;;;;;;17.83;8.33;;;;;;;2.13;100.00;100000.75;5052471;28;20266;-60
2022/01/29 02:48:08;;;;;;;23.27;9.40;;;;;;;2.22;100.00;99991.25;5052462;28;20323;-60
2022/01/29 02:50:34;;;;;;;20.37;9.70;;;;;;;2.12;100.00;99996.41;5052390;28;20661;-60
2022/01/29 02:52:59;;;;;;;22.53;9.90;;;;;;;2.19;100.00;99991.50;5052445;28;20265;-60
2022/01/29 02:55:25;;;;;;;21.53;9.87;;;;;;;2.18;100.00;99981.94;5052320;28;20021;-59
2022/01/29 02:57:50;;;;;;;19.00;9.60;;;;;;;2.12;100.00;99979.75;5052362;28;20108;-60
2022/01/29 03:00:16;;;;;;;22.07;9.97;;;;;;;2.12;100.00;99987.66;5052224;28;20036;-60
2022/01/29 03:02:42;;;;;;;21.77;9.80;;;;;;;2.14;100.00;99975.22;5052343;28;20541;-59
2022/01/29 03:05:08;;;;;;;18.97;9.80;;;;;;;2.13;100.00;99970.91;5052192;28;20066;-60
2022/01/29 03:07:33;;;;;;;24.27;10.93;;;;;;;2.14;100.00;99965.50;5052380;28;20036;-59
2022/01/29 03:09:59;;;;;;;23.07;9.90;;;;;;;2.13;100.00;99963.81;5052156;28;20697;-60
2022/01/29 03:12:25;;;;;;;21.70;10.57;;;;;;;2.12;100.00;99961.31;5051966;28;20135;-60
2022/01/29 03:14:50;;;;;;;19.40;9.87;;;;;;;2.10;100.00;99958.78;5051723;28;20094;-60
2022/01/29 03:17:16;;;;;;;18.80;10.27;;;;;;;2.07;100.00;99959.06;5050672;28;20266;-60
2022/01/29 03:19:41;;;;;;;23.53;10.60;;;;;;;2.05;100.00;99949.59;5051894;28;20020;-59
2022/01/29 03:22:07;;;;;;;20.63;10.57;;;;;;;2.00;100.00;99947.31;5051706;28;20029;-59
2022/01/29 03:24:32;;;;;;;24.97;11.10;;;;;;;1.93;100.00;99947.94;5051437;28;20021;-59
2022/01/29 03:26:58;;;;;;;22.30;12.40;;;;;;;1.94;100.00;99944.34;5051715;28;20100;-60
2022/01/29 03:29:23;;;;;;;21.57;10.93;;;;;;;1.94;100.00;99946.97;5051988;28;20110;-59
2022/01/29 03:31:49;;;;;;;22.17;10.70;;;;;;;2.00;100.00;99952.59;5051884;28;20490;-59
2022/01/29 03:34:14;;;;;;;24.63;11.17;;;;;;;1.94;100.00;99954.88;5051709;28;20052;-59
2022/01/29 03:36:40;;;;;;;24.17;11.43;;;;;;;1.99;100.00;99956.16;5051812;28;20035;-59
2022/01/29 03:39:05;;;;;;;22.87;10.47;;;;;;;1.92;100.00;99952.34;5051825;28;20067;-59
2022/01/29 03:41:31;;;;;;;20.87;10.50;;;;;;;1.90;100.00;99953.44;5051628;28;20037;-59
2022/01/29 03:44:02;;;;;;;24.30;11.77;;;;;;;1.88;100.00;99944.81;5051558;28;20096;-60
2022/01/29 03:46:27;;;;;;;19.20;10.33;;;;;;;1.87;100.00;99943.97;5051733;28;20032;-60
2022/01/29 03:48:53;;;;;;;23.93;10.87;;;;;;;1.83;100.00;99933.81;5051471;28;20796;-59
2022/01/29 03:51:18;;;;;;;21.83;10.30;;;;;;;1.88;100.00;99929.00;5051366;28;20482;-60
2022/01/29 03:53:46;;;;;;;20.53;10.67;;;;;;;1.88;100.00;99947.44;5051308;28;20108;-59
2022/01/29 03:56:12;;;;;;;22.37;9.97;;;;;;;1.87;100.00;99938.69;5051337;28;20449;-59
2022/01/29 03:58:37;;;;;;;22.40;10.73;;;;;;;1.81;100.00;99936.56;5051586;28;20262;-60
2022/01/29 04:01:03;;;;;;;22.37;10.20;;;;;;;1.89;100.00;99941.22;5051314;28;20087;-59
2022/01/29 04:03:28;;;;;;;23.57;10.70;;;;;;;1.88;100.00;99940.38;5051205;28;20025;-60
2022/01/29 04:05:54;;;;;;;22.80;9.97;;;;;;;1.94;100.00;99923.25;5051173;28;20029;-59
2022/01/29 04:08:24;;;;;;;21.30;10.73;;;;;;;1.93;100.00;99925.03;5051500;28;20108;-60
2022/01/29 04:10:50;;;;;;;26.20;10.80;;;;;;;2.03;100.00;99925.97;5051196;28;20021;-59
2022/01/29 04:13:20;;;;;;;21.47;10.23;;;;;;;2.01;100.00;99932.31;5050664;28;20293;-59
2022/01/29 04:15:46;;;;;;;22.17;10.40;;;;;;;2.03;100.00;99928.63;5051093;28;20273;-59
2022/01/29 04:18:12;;;;;;;22.73;10.80;;;;;;;2.16;100.00;99931.94;5051108;28;20671;-60
2022/01/29 04:20:37;;;;;;;19.37;10.00;;;;;;;2.09;100.00;99933.38;5051103;28;20059;-59
2022/01/29 04:23:07;;;;;;;20.23;11.07;;;;;;;1.95;100.00;99919.66;5051143;28;20029;-60
2022/01/29 04:25:33;;;;;;;22.27;11.40;;;;;;;2.01;100.00;99916.50;5050943;28;20394;-60
2022/01/29 04:27:58;;;;;;;20.47;10.43;;;;;;;2.03;100.00;99917.22;5051153;28;20276;-60
2022/01/29 04:30:30;;;;;;;20.00;10.57;;;;;;;1.95;100.00;99909.94;5050938;28;20055;-60
2022/01/29 04:33:01;;;;;;;20.80;10.70;;;;;;;1.96;100.00;99905.53;5051139;28;20266;-60
2022/01/29 04:35:28;;;;;;;21.53;10.07;;;;;;;1.97;100.00;99917.72;5052883;28;20774;-59
2022/01/29 04:37:54;;;;;;;20.07;10.20;;;;;;;2.03;100.00;99914.59;5053745;28;20292;-59
2022/01/29 04:40:20;;;;;;;24.50;11.40;;;;;;;2.01;100.00;99914.72;5054957;28;20261;-59
2022/01/29 04:42:46;;;;;;;21.33;10.37;;;;;;;2.02;100.00;99913.75;5054938;28;20029;-59
2022/01/29 04:45:12;;;;;;;25.10;11.10;;;;;;;2.00;100.00;99906.94;5054879;28;20625;-59
2022/01/29 04:47:38;;;;;;;23.00;11.27;;;;;;;1.96;100.00;99906.31;5053790;28;20025;-57
2022/01/29 04:50:04;;;;;;;23.37;10.13;;;;;;;1.97;100.00;99901.91;5054908;28;20274;-59
2022/01/29 04:52:30;;;;;;;21.63;10.33;;;;;;;1.99;100.00;99894.72;5055125;28;20056;-60
2022/01/29 04:54:55;;;;;;;21.27;11.07;;;;;;;1.96;100.00;99897.63;5054652;28;20288;-60
2022/01/29 04:57:21;;;;;;;20.43;10.57;;;;;;;1.94;100.00;99894.25;5054711;28;20096;-59
2022/01/29 04:59:47;;;;;;;22.13;10.33;;;;;;;1.89;100.00;99894.63;5054730;28;20032;-60
2022/01/29 05:02:12;;;;;;;21.73;10.27;;;;;;;1.90;100.00;99892.81;5054835;28;20083;-59
2022/01/29 05:04:37;;;;;;;20.97;10.97;;;;;;;1.83;100.00;99887.22;5054548;28;20754;-60
2022/01/29 05:07:03;;;;;;;20.23;10.43;;;;;;;1.84;100.00;99883.63;5054505;28;20028;-59
2022/01/29 05:09:29;;;;;;;20.57;10.27;;;;;;;1.82;100.00;99875.00;5054722;28;20103;-60
2022/01/29 05:11:56;;;;;;;21.73;9.87;;;;;;;1.76;100.00;99872.84;5054574;28;20055;-60
2022/01/29 05:14:51;;;;;;;21.30;10.23;;;;;;;1.78;100.00;99873.56;5054073;28;20401;-60
2022/01/29 05:28:14;;;;;;;18.80;9.93;;;;;;;1.64;100.00;99881.72;5054083;28;19962;-59
2022/01/29 05:30:40;;;;;;;19.97;10.33;;;;;;;1.67;100.00;99884.13;5053962;28;20029;-59
2022/01/29 05:33:05;;;;;;;21.10;9.97;;;;;;;1.70;100.00;99886.50;5053972;28;20494;-60
2022/01/29 05:35:31;;;;;;;20.93;10.27;;;;;;;1.77;100.00;99891.16;5053811;28;20031;-59
2022/01/29 05:37:57;;;;;;;20.33;9.47;;;;;;;1.77;100.00;99890.31;5053922;28;20103;-60
2022/01/29 05:40:23;;;;;;;19.60;9.63;;;;;;;1.84;100.00;99881.00;5053719;28;20032;-58
2022/01/29 05:42:48;;;;;;;18.53;9.63;;;;;;;1.88;100.00;99885.03;5053716;28;20265;-59
2022/01/29 05:45:16;;;;;;;20.33;9.83;;;;;;;1.90;100.00;99877.00;5053520;28;20074;-59
2022/01/29 05:47:42;;;;;;;19.43;9.87;;;;;;;1.91;100.00;99870.78;5053411;28;20025;-59
2022/01/29 05:50:08;;;;;;;18.17;9.97;;;;;;;1.86;100.00;99873.75;5053693;28;20257;-60
2022/01/29 05:52:34;;;;;;;20.23;10.80;;;;;;;1.83;100.00;99870.56;5053599;28;20032;-60
2022/01/29 05:54:59;;;;;;;19.50;10.07;;;;;;;1.88;100.00;99871.84;5053457;28;20751;-60
2022/01/29 05:57:25;;;;;;;19.20;9.57;;;;;;;1.91;100.00;99874.25;5053693;28;20033;-59
2022/01/29 05:59:50;;;;;;;17.37;9.40;;;;;;;1.96;100.00;99872.06;5052280;28;20021;-59
2022/01/29 06:02:16;;;;;;;19.00;11.57;;;;;;;1.94;100.00;99867.91;5053100;28;20436;-59
2022/01/29 06:04:41;;;;;;;22.10;10.53;;;;;;;2.11;100.00;99872.63;5052971;28;20445;-59
2022/01/29 06:07:07;;;;;;;19.30;10.77;;;;;;;2.13;100.00;99874.19;5053362;28;20426;-59
2022/01/29 06:09:32;;;;;;;25.03;10.27;;;;;;;2.10;100.00;99874.44;5053473;28;20386;-59
2022/01/29 06:11:58;;;;;;;19.20;9.73;;;;;;;2.17;100.00;99874.78;5053302;28;20032;-59
2022/01/29 06:14:23;;;;;;;18.80;9.70;;;;;;;2.14;100.00;99875.03;5053083;28;20798;-59
2022/01/29 06:16:49;;;;;;;21.53;9.97;;;;;;;2.10;100.00;99866.50;5053295;28;20059;-60
2022/01/29 06:19:14;;;;;;;21.63;9.93;;;;;;;2.11;100.00;99872.63;5053276;28;20056;-59
2022/01/29 06:21:40;;;;;;;26.57;13.60;;;;;;;2.10;100.00;99860.41;5053183;28;20422;-60
2022/01/29 06:24:06;;;;;;;21.63;9.87;;;;;;;2.07;100.00;99855.41;5053193;28;20021;-59
2022/01/29 06:26:31;;;;;;;18.83;10.10;;;;;;;2.12;100.00;99869.88;5052957;28;20017;-59
2022/01/29 06:28:59;;;;;;;17.87;9.80;;;;;;;2.17;100.00;99862.44;5051938;28;20032;-59
2022/01/29 06:31:24;;;;;;;20.87;9.83;;;;;;;2.20;100.00;99869.22;5053001;28;20059;-59
2022/01/29 06:33:50;;;;;;;20.77;9.70;;;;;;;2.29;100.00;99870.31;5052849;28;20700;-60
2022/01/29 06:36:15;;;;;;;19.37;9.80;;;;;;;2.22;100.00;99877.88;5052897;28;20025;-59
2022/01/29 06:38:41;;;;;;;18.03;9.37;;;;;;;2.24;100.00;99870.66;5053111;28;20075;-59
2022/01/29 06:41:07;;;;;;;17.13;9.20;;;;;;;2.32;100.00;99875.31;5052738;28;20086;-59
2022/01/29 06:43:32;;;;;;;19.50;9.37;;;;;;;2.31;100.00;99876.28;5052837;28;20021;-59
2022/01/29 06:45:58;;;;;;;25.33;9.67;;;;;;;2.26;100.00;99873.19;5052543;28;20108;-59
2022/01/29 06:48:23;;;;;;;18.10;9.23;;;;;;;2.29;100.00;99883.50;5051193;28;20148;-59
2022/01/29 06:50:49;;;;;;;28.00;14.53;;;;;;;2.32;100.00;99875.31;5052541;28;20068;-59
2022/01/29 06:53:15;;;;;;;19.17;9.67;;;;;;;2.33;100.00;99884.88;5052419;28;20491;-60
2022/01/29 06:55:42;;;;;;;17.53;9.10;;;;;;;2.33;100.00;99883.09;5052176;28;20447;-59
2022/01/29 06:58:07;;;;;;;19.43;10.60;;;;;;;2.34;100.00;99881.28;5051656;28;20033;-57
2022/01/29 07:00:33;;;;;;;17.40;9.27;;;;;;;2.34;100.00;99871.59;5052161;28;20268;-58
2022/01/29 07:02:58;;;;;;;16.53;9.33;;;;;;;2.32;100.00;99865.59;5052139;28;20561;-57
2022/01/29 07:05:24;;;;;;;18.67;9.60;;;;;;;2.32;100.00;99868.22;5052089;28;20025;-58
2022/01/29 07:07:49;;;;;;;17.37;9.57;;;;;;;2.34;100.00;99865.47;5052089;28;20460;-59
2022/01/29 07:10:16;;;;;;;15.50;9.10;;;;;;;2.40;100.00;99870.25;5052181;28;20039;-58
2022/01/29 07:12:41;;;;;;;16.37;8.83;;;;;;;2.43;100.00;99865.53;5052034;28;20029;-58
2022/01/29 07:15:10;;;;;;;19.40;10.37;;;;;;;2.44;100.00;99869.03;5051874;28;20354;-58
2022/01/29 07:17:36;;;;;;;17.23;9.70;;;;;;;2.31;100.00;99878.94;5052248;28;20378;-58
2022/01/29 07:20:03;;;;;;;18.73;8.57;;;;;;;2.39;100.00;99872.06;5050763;28;20274;-58
2022/01/29 07:22:29;;;;;;;38.73;19.90;;;;;;;2.50;100.00;99879.91;5051936;28;20258;-57
2022/01/29 07:24:55;;;;;;;16.63;9.03;;;;;;;2.50;100.00;99857.97;5051968;28;20749;-58
2022/01/29 07:27:20;;;;;;;17.77;9.63;;;;;;;2.42;100.00;99868.34;5051879;28;20545;-57
2022/01/29 07:29:46;;;;;;;17.07;9.13;;;;;;;2.47;100.00;99860.84;5051775;28;20089;-58
2022/01/29 07:32:11;;;;;;;17.23;8.63;;;;;;;2.42;100.00;99860.41;5051737;28;20060;-59
2022/01/29 07:34:37;;;;;;;17.73;9.27;;;;;;;2.49;100.00;99840.47;5051491;28;20021;-57
2022/01/29 07:37:03;;;;;;;14.93;8.47;;;;;;;2.54;100.00;99848.81;5051726;28;20025;-57
2022/01/29 07:39:29;;;;;;;18.37;8.53;;;;;;;2.63;100.00;99841.97;5051634;28;20032;-57
2022/01/29 07:41:55;;;;;;;15.37;8.07;;;;;;;2.66;100.00;99845.16;5051540;28;20293;-57
2022/01/29 07:44:21;;;;;;;16.53;8.70;;;;;;;2.68;100.00;99837.94;5051617;28;20493;-60
2022/01/29 07:46:48;;;;;;;18.13;9.63;;;;;;;2.76;100.00;99843.44;5051489;28;20898;-58
2022/01/29 07:49:13;;;;;;;16.73;8.20;;;;;;;2.76;100.00;99837.31;5051723;28;20273;-56
2022/01/29 07:51:39;;;;;;;19.73;10.90;;;;;;;2.87;100.00;99827.53;5051485;28;20257;-59
2022/01/29 07:54:06;;;;;;;16.83;10.50;;;;;;;2.92;100.00;99825.31;5051473;28;20049;-56
2022/01/29 07:56:32;;;;;;;16.87;8.07;;;;;;;2.91;100.00;99815.72;5051374;28;20660;-72
2022/01/29 07:58:57;;;;;;;17.17;9.20;;;;;;;3.09;100.00;99812.47;5051404;28;20296;-60
2022/01/29 08:01:23;;;;;;;15.63;8.37;;;;;;;3.13;100.00;99816.50;5051308;28;20032;-62
2022/01/29 08:03:50;;;;;;;15.57;8.07;;;;;;;3.13;100.00;99819.16;5051495;28;20096;-62
2022/01/29 08:06:18;;;;;;;14.70;8.30;;;;;;;3.14;100.00;99816.38;5051254;28;20042;-62
2022/01/29 08:08:44;;;;;;;14.47;7.83;;;;;;;3.31;100.00;99822.84;5051065;28;20272;-63
2022/01/29 08:11:10;;;;;;;13.73;7.90;;;;;;;3.37;100.00;99816.19;5051267;28;20353;-62
2022/01/29 08:13:36;;;;;;;16.63;8.17;;;;;;;3.44;100.00;99809.41;5050713;28;20103;-61
2022/01/29 08:16:02;;;;;;;17.20;8.03;;;;;;;3.55;100.00;99810.16;5062665;28;20265;-60
2022/01/29 08:18:29;;;;;;;12.57;7.77;;;;;;;3.73;100.00;99809.47;5070943;28;20035;-60
2022/01/29 08:20:54;;;;;;;15.70;7.90;;;;;;;3.21;100.00;99808.78;5070956;28;20319;-59
2022/01/29 08:23:20;;;;;;;16.30;8.03;;;;;;;3.29;100.00;99806.31;5070822;28;20265;-62
2022/01/29 08:25:45;;;;;;;12.20;7.10;;;;;;;3.44;100.00;99790.91;5070859;28;20478;-59
2022/01/29 08:28:11;;;;;;;12.93;6.67;;;;;;;3.58;100.00;99783.44;5071253;28;20120;-59
2022/01/29 08:30:37;;;;;;;15.43;7.53;;;;;;;3.61;100.00;99784.97;5070736;28;20029;-60
2022/01/29 08:33:03;;;;;;;13.43;7.43;;;;;;;3.56;100.00;99779.28;5071053;28;20024;-61
2022/01/29 08:35:28;;;;;;;15.37;7.30;;;;;;;3.76;100.00;99786.25;5071017;28;20261;-60
2022/01/29 08:37:56;;;;;;;13.53;7.10;;;;;;;3.83;100.00;99781.22;5070953;28;20277;-61
2022/01/29 08:40:22;;;;;;;13.43;7.00;;;;;;;4.02;100.00;99791.84;5070930;28;20517;-61
2022/01/29 08:42:48;;;;;;;14.37;7.50;;;;;;;3.93;100.00;99804.06;5070702;28;20257;-59
2022/01/29 08:45:13;;;;;;;13.87;7.73;;;;;;;4.00;100.00;99783.22;5070836;28;20021;-60
2022/01/29 08:47:40;;;;;;;13.43;6.83;;;;;;;4.08;100.00;99782.50;5069626;28;20033;-59
2022/01/29 08:50:07;;;;;;;15.43;7.60;;;;;;;4.14;100.00;99790.72;5070813;28;20029;-60
2022/01/29 08:52:33;;;;;;;12.87;6.67;;;;;;;4.20;100.00;99787.50;5071062;28;20757;-60
2022/01/29 08:54:59;;;;;;;13.70;7.20;;;;;;;3.84;100.00;99788.19;5070709;28;20397;-59
2022/01/29 08:57:24;;;;;;;13.90;7.67;;;;;;;3.87;100.00;99791.41;5070614;28;20591;-60
2022/01/29 08:59:50;;;;;;;14.73;7.07;;;;;;;3.89;100.00;99791.28;5069332;28;20032;-60
2022/01/29 09:02:16;;;;;;;13.47;7.80;;;;;;;3.98;100.00;99782.50;5070840;28;20044;-59
2022/01/29 09:04:42;;;;;;;14.27;6.83;;;;;;;3.83;100.00;99760.94;5070446;28;20036;-59
2022/01/29 09:07:09;;;;;;;14.77;7.23;;;;;;;3.82;100.00;99758.41;5070562;28;20401;-59
2022/01/29 09:09:36;;;;;;;12.87;6.63;;;;;;;3.58;100.00;99775.50;5070242;28;20108;-61
2022/01/29 09:12:02;;;;;;;12.10;6.27;;;;;;;3.80;100.00;99771.78;5070650;28;20348;-60
2022/01/29 09:14:28;;;;;;;13.37;6.80;;;;;;;3.84;100.00;99772.34;5070343;28;20285;-60
2022/01/29 09:16:53;;;;;;;13.57;6.93;;;;;;;3.67;100.00;99775.66;5070517;28;20280;-60
2022/01/29 09:19:19;;;;;;;18.53;6.80;;;;;;;3.75;100.00;99781.09;5070580;28;20021;-60
2022/01/29 09:21:45;;;;;;;13.90;6.63;;;;;;;3.66;100.00;99779.28;5072577;28;20776;-60
2022/01/29 09:24:10;;;;;;;11.70;6.30;;;;;;;3.82;100.00;99774.28;5074183;28;20589;-60
2022/01/29 09:26:36;;;;;;;10.33;5.73;;;;;;;3.89;100.00;99775.41;5073724;28;20031;-60
2022/01/29 09:29:03;;;;;;;11.63;6.17;;;;;;;3.94;100.00;99767.88;5073460;28;20024;-60
2022/01/29 09:31:29;;;;;;;12.60;6.67;;;;;;;3.88;100.00;99774.56;5073388;28;20025;-60
2022/01/29 09:33:54;;;;;;;11.03;5.67;;;;;;;4.00;100.00;99775.28;5073370;28;20284;-60
2022/01/29 09:36:21;;;;;;;13.37;6.03;;;;;;;3.97;100.00;99770.25;5072194;28;20025;-60
2022/01/29 09:38:47;;;;;;;11.83;6.10;;;;;;;4.02;100.00;99775.97;5073303;28;20113;-60
2022/01/29 09:41:13;;;;;;;11.17;6.10;;;;;;;4.04;100.00;99771.34;5073501;28;20832;-60
2022/01/29 09:43:42;;;;;;;10.20;5.93;;;;;;;4.07;100.00;99770.25;5072742;28;20268;-60
2022/01/29 09:46:07;;;;;;;12.73;5.87;;;;;;;4.14;100.00;99774.03;5074121;28;20028;-61
2022/01/29 09:48:34;;;;;;;12.77;6.17;;;;;;;4.21;100.00;99775.13;5072679;28;20272;-61
2022/01/29 09:50:59;;;;;;;13.63;5.50;;;;;;;4.29;100.00;99773.44;5072634;28;20021;-61
2022/01/29 09:53:25;;;;;;;11.33;5.87;;;;;;;4.05;100.00;99774.84;5073712;28;20285;-61
2022/01/29 09:55:51;;;;;;;9.83;5.90;;;;;;;4.36;100.00;99771.91;5073479;28;20126;-61
2022/01/29 09:58:17;;;;;;;11.37;5.50;;;;;;;4.42;100.00;99759.06;5073684;28;20265;-61
2022/01/29 10:00:42;;;;;;;11.17;5.33;;;;;;;4.26;100.00;99770.25;5073558;28;20028;-61
2022/01/29 10:03:10;;;;;;;11.10;5.17;;;;;;;4.11;100.00;99764.56;5073632;28;20132;-61
2022/01/29 10:05:39;;;;;;;12.27;5.53;;;;;;;4.32;100.00;99753.81;5073478;28;20025;-61
2022/01/29 10:08:06;;;;;;;10.00;5.60;;;;;;;4.48;100.00;99748.78;5073351;28;20608;-61
2022/01/29 10:10:49;;;;;;;9.90;5.20;;;;;;;4.09;100.00;99747.16;5073257;28;20267;-62
2022/01/29 10:13:40;;;;;;;13.80;7.37;;;;;;;4.34;100.00;99736.81;5073045;28;20307;-60
2022/01/29 10:16:11;;;;;;;10.73;5.33;;;;;;;4.07;100.00;99733.22;5072826;28;20390;-59
2022/01/29 10:18:38;;;;;;;11.07;5.07;;;;;;;4.36;100.00;99724.28;5072918;28;20270;-60
2022/01/29 10:21:13;;;;;;;14.17;5.63;;;;;;;4.23;100.00;99730.84;5072945;28;20753;-60
2022/01/29 10:23:39;;;;;;;9.27;5.30;;;;;;;4.17;100.00;99734.03;5072991;28;20268;-60
2022/01/29 10:26:05;;;;;;;8.10;4.70;;;;;;;4.25;100.00;99723.63;5072952;28;20268;-60
2022/01/29 10:28:32;;;;;;;8.63;4.67;;;;;;;4.32;100.00;99725.53;5073014;28;20265;-60
2022/01/29 10:31:05;;;;;;;10.17;5.10;;;;;;;4.28;100.00;99721.50;5072862;28;20033;-60
2022/01/29 10:33:34;;;;;;;9.77;5.25;;;;;;;4.38;100.00;99713.56;5073161;28;20277;-60
2022/01/29 10:36:08;;;;;;;11.10;5.17;;;;;;;4.17;100.00;99707.59;5072704;28;20136;-60
2022/01/29 10:38:47;;;;;;;9.27;5.20;;;;;;;4.24;100.00;99716.66;5072675;28;20307;-60
2022/01/29 10:41:24;;;;;;;11.40;4.93;;;;;;;4.08;100.00;99708.44;5072584;28;20028;-60
2022/01/29 10:46:41;;;;;;;8.63;5.10;;;;;;;4.17;100.00;99699.66;5072296;28;20265;-60
2022/01/29 10:49:07;;;;;;;9.37;5.20;;;;;;;4.23;100.00;99702.59;5072300;28;20738;-60
2022/01/29 10:51:34;;;;;;;8.50;4.90;;;;;;;4.42;100.00;99695.56;5072210;28;20027;-60
2022/01/29 10:54:30;;;;;;;11.70;5.70;;;;;;;4.12;100.00;99718.63;5072109;28;20297;-60
2022/01/29 10:57:01;;;;;;;9.77;5.27;;;;;;;4.04;100.00;99697.31;5071554;28;20281;-60
2022/01/29 10:59:30;;;;;;;10.40;5.40;;;;;;;4.24;100.00;99691.03;5072283;28;20268;-60
2022/01/29 11:01:58;;;;;;;9.63;5.70;;;;;;;4.29;100.00;99686.13;5072383;28;20625;-60
2022/01/29 11:04:27;;;;;;;9.27;4.93;;;;;;;4.41;100.00;99684.16;5072249;28;20270;-60
2022/01/29 11:06:54;;;;;;;10.73;5.07;;;;;;;4.48;100.00;99676.50;5072197;28;20360;-60
2022/01/29 11:09:21;;;;;;;9.50;4.97;;;;;;;4.43;100.00;99678.72;5072207;28;20368;-61
2022/01/29 11:11:47;;;;;;;7.67;4.60;;;;;;;4.35;100.00;99672.34;5070795;28;20305;-60
2022/01/29 11:14:16;;;;;;;9.20;4.67;;;;;;;4.24;100.00;99674.34;5053940;28;20292;-60
2022/01/29 11:16:42;;;;;;;11.33;5.80;;;;;;;4.33;100.00;99665.53;5071974;28;20265;-60
2022/01/29 11:19:08;;;;;;;11.03;4.90;;;;;;;4.37;100.00;99648.41;5072037;28;20749;-61
2022/01/29 11:21:36;;;;;;;8.07;5.13;;;;;;;4.23;100.00;99647.03;5070990;28;20119;-60
2022/01/29 11:24:04;;;;;;;12.43;5.10;;;;;;;4.21;100.00;99646.34;5072115;28;20261;-60
2022/01/29 11:26:30;;;;;;;10.47;4.70;;;;;;;4.17;100.00;99638.81;5072219;28;20276;-61
2022/01/29 11:29:24;;;;;;;10.00;4.93;;;;;;;4.16;100.00;99626.56;5071944;28;20276;-61
2022/01/29 11:32:21;;;;;;;9.90;5.18;;;;;;;4.00;100.00;99622.75;5071672;28;20730;-60
2022/01/29 11:35:13;;;;;;;7.73;4.60;;;;;;;3.71;100.00;99629.03;5071970;28;20029;-60